createdAt,value
2023-05-25T04:02:13.510Z,10.50
2023-05-25T04:04:41.792Z,10.50
2023-05-25T04:07:09.722Z,10.50
2023-05-25T04:09:40.743Z,10.50
2023-05-25T04:12:08.677Z,10.60
2023-05-25T04:14:36.487Z,10.60
2023-05-25T04:17:04.403Z,10.60
2023-05-25T04:19:33.820Z,10.60
2023-05-25T04:22:01.705Z,10.70
2023-05-25T04:24:29.611Z,10.60
2023-05-25T04:26:57.675Z,10.60
2023-05-25T04:29:25.490Z,10.60
2023-05-25T04:34:23.551Z,10.70
2023-05-25T04:39:21.684Z,10.70
2023-05-25T04:41:49.511Z,10.70
2023-05-25T04:44:17.805Z,10.70
2023-05-25T04:46:45.585Z,10.80
2023-05-25T04:49:14.288Z,10.80
2023-05-25T04:51:42.131Z,10.80
2023-05-25T04:54:11.264Z,10.80
2023-05-25T04:56:39.076Z,10.80
2023-05-25T04:59:07.148Z,10.90
2023-05-25T05:01:40.514Z,10.90
2023-05-25T05:04:08.997Z,11.00
2023-05-25T05:09:05.826Z,10.90
2023-05-25T05:11:34.979Z,11.00
2023-05-25T05:14:02.984Z,11.10
2023-05-25T05:16:34.253Z,11.10
2023-05-25T05:19:02.772Z,11.30
2023-05-25T05:21:30.734Z,11.50
2023-05-25T05:23:58.622Z,11.70
2023-05-25T05:26:27.697Z,11.80
2023-05-25T05:28:56.834Z,11.90
2023-05-25T05:31:25.365Z,11.90
2023-05-25T05:36:21.645Z,12.00
2023-05-25T05:38:49.494Z,12.10
2023-05-25T05:41:17.265Z,12.30
2023-05-25T05:43:46.337Z,12.40
2023-05-25T05:46:15.558Z,12.50
2023-05-25T05:48:43.392Z,12.70
2023-05-25T05:53:39.342Z,12.70
2023-05-25T05:56:07.642Z,12.80
2023-05-25T05:58:35.639Z,12.80
2023-05-25T06:01:04.505Z,12.70
2023-05-25T06:03:33.699Z,12.60
2023-05-25T06:06:01.740Z,12.50
2023-05-25T06:08:29.670Z,12.50
2023-05-25T06:10:57.435Z,12.40
2023-05-25T06:13:25.501Z,12.40
2023-05-25T06:15:53.531Z,12.30
2023-05-25T06:18:21.402Z,12.20
2023-05-25T06:20:50.826Z,12.10
2023-05-25T06:25:47.359Z,12.00
2023-05-25T06:28:16.405Z,12.00
2023-05-25T06:30:44.211Z,12.00
2023-05-25T06:33:12.048Z,12.10
2023-05-25T06:35:39.947Z,12.20
2023-05-25T06:38:09.190Z,12.30
2023-05-25T06:40:37.047Z,12.40
2023-05-25T06:43:05.278Z,12.40
2023-05-25T06:45:33.606Z,12.40
2023-05-25T06:48:01.760Z,12.50
2023-05-25T06:50:29.833Z,12.50
2023-05-25T06:52:59.117Z,12.60
2023-05-25T06:55:29.585Z,12.70
2023-05-25T06:57:57.875Z,12.70
2023-05-25T07:00:25.770Z,12.80
2023-05-25T07:02:53.729Z,14.50
2023-05-25T07:05:21.912Z,12.90
2023-05-25T07:07:49.893Z,12.90
2023-05-25T07:10:18.177Z,13.00
2023-05-25T07:12:47.353Z,13.10
2023-05-25T07:15:16.339Z,13.10
2023-05-25T07:17:44.192Z,13.20
2023-05-25T07:20:13.233Z,13.10
2023-05-25T07:22:41.416Z,13.30
2023-05-25T07:25:10.449Z,13.40
2023-05-25T07:27:38.804Z,13.50
2023-05-25T07:30:09.662Z,13.60
2023-05-25T07:32:38.539Z,13.70
2023-05-25T07:35:07.408Z,13.80
2023-05-25T07:37:35.238Z,13.80
2023-05-25T07:40:03.202Z,13.80
2023-05-25T07:42:34.228Z,13.90
2023-05-25T07:45:02.085Z,14.00
2023-05-25T07:47:31.278Z,14.00
2023-05-25T07:49:59.171Z,14.10
2023-05-25T07:52:27.035Z,14.20
2023-05-25T07:54:54.923Z,14.20
2023-05-25T07:57:22.760Z,14.30
2023-05-25T07:59:50.593Z,14.30
2023-05-25T08:02:18.439Z,14.40
2023-05-25T08:04:47.738Z,14.40
2023-05-25T08:07:15.866Z,14.40
2023-05-25T08:09:43.699Z,14.50
2023-05-25T08:12:27.084Z,14.60
2023-05-25T08:14:59.389Z,14.70
2023-05-25T08:17:27.323Z,14.60
2023-05-25T08:19:57.741Z,14.60
2023-05-25T08:22:25.743Z,14.70
2023-05-25T08:24:53.581Z,14.80
2023-05-25T08:27:21.479Z,14.90
2023-05-25T08:29:49.301Z,15.00
2023-05-25T08:32:17.213Z,15.00
2023-05-25T08:34:45.146Z,15.10
2023-05-25T08:37:14.333Z,15.10
2023-05-25T08:39:48.238Z,15.20
2023-05-25T08:42:16.050Z,15.20
2023-05-25T08:44:43.869Z,15.20
2023-05-25T08:47:15.256Z,15.20
2023-05-25T08:49:45.352Z,15.20
2023-05-25T08:52:16.228Z,15.30
2023-05-25T08:54:45.233Z,15.30
2023-05-25T08:57:18.325Z,15.40
2023-05-25T08:59:50.719Z,15.50
2023-05-25T09:02:24.855Z,15.50
2023-05-25T09:04:53.130Z,15.60
2023-05-25T09:07:22.683Z,15.70
2023-05-25T09:09:51.256Z,15.70
2023-05-25T09:12:20.085Z,15.70
2023-05-25T09:14:48.216Z,15.80
2023-05-25T09:17:16.992Z,15.80
2023-05-25T09:19:45.371Z,15.90
2023-05-25T09:24:46.574Z,16.00
2023-05-25T09:27:18.473Z,16.00
2023-05-25T09:29:48.603Z,16.00
2023-05-25T09:32:16.743Z,16.10
2023-05-25T09:34:44.959Z,16.10
2023-05-25T09:37:14.308Z,16.20
2023-05-25T09:39:42.759Z,16.20
2023-05-25T09:42:12.475Z,16.30
2023-05-25T09:44:43.139Z,16.20
2023-05-25T09:47:13.735Z,16.20
2023-05-25T09:49:42.639Z,16.40
2023-05-25T09:52:10.571Z,16.40
2023-05-25T09:54:39.170Z,16.50
2023-05-25T09:57:07.721Z,16.60
2023-05-25T09:59:37.355Z,16.60
2023-05-25T10:02:05.477Z,16.70
2023-05-25T10:04:33.653Z,16.70
2023-05-25T10:12:01.366Z,16.80
2023-05-25T10:14:30.969Z,16.80
2023-05-25T10:17:01.781Z,17.00
2023-05-25T10:19:34.233Z,17.00
2023-05-25T10:22:08.073Z,17.10
2023-05-25T10:24:43.676Z,17.20
2023-05-25T10:30:06.833Z,17.40
2023-05-25T10:32:37.706Z,17.40
2023-05-25T10:35:06.722Z,17.40
2023-05-25T10:37:35.849Z,17.50
2023-05-25T10:40:08.515Z,17.60
2023-05-25T10:42:37.955Z,17.60
2023-05-25T10:45:08.320Z,17.70
2023-05-25T10:47:41.678Z,17.80
2023-05-25T10:50:20.494Z,17.80
2023-05-25T10:52:59.715Z,18.00
2023-05-25T10:55:31.731Z,17.90
2023-05-25T10:58:10.279Z,17.90
2023-05-25T11:00:38.582Z,17.90
2023-05-25T11:03:08.623Z,17.90
2023-05-25T11:05:40.455Z,17.90
2023-05-25T11:08:09.986Z,18.00
2023-05-25T11:10:54.650Z,18.10
2023-05-25T11:13:40.595Z,18.20
2023-05-25T11:16:17.589Z,18.20
2023-05-25T11:18:51.574Z,18.20
2023-05-25T11:21:43.577Z,18.30
2023-05-25T11:24:18.655Z,18.30
2023-05-25T11:26:58.576Z,18.20
2023-05-25T11:29:27.206Z,18.30
2023-05-25T11:31:56.543Z,18.40
2023-05-25T11:36:57.861Z,18.50
2023-05-25T11:39:25.871Z,18.60
2023-05-25T11:41:56.810Z,18.50
2023-05-25T11:44:29.393Z,18.60
2023-05-25T11:46:58.562Z,18.70
2023-05-25T11:51:58.716Z,18.70
2023-05-25T11:54:27.926Z,18.80
2023-05-25T11:56:59.173Z,18.80
2023-05-25T11:59:29.751Z,18.90
2023-05-25T12:02:01.016Z,19.00
2023-05-25T12:04:31.114Z,19.00
2023-05-25T12:07:03.657Z,19.00
2023-05-25T12:09:31.886Z,19.00
2023-05-25T12:12:00.720Z,19.00
2023-05-25T12:14:28.658Z,19.00
2023-05-25T12:16:57.733Z,19.10
2023-05-25T12:19:26.145Z,19.10
2023-05-25T12:21:55.869Z,19.20
2023-05-25T12:24:25.095Z,19.30
2023-05-25T12:26:57.260Z,19.30
2023-05-25T12:31:54.120Z,19.30
2023-05-25T12:34:22.285Z,19.30
2023-05-25T12:36:51.653Z,22.30
2023-05-25T12:39:38.826Z,19.50
2023-05-25T12:42:13.227Z,19.50
2023-05-25T12:44:41.520Z,19.60
2023-05-25T12:47:14.013Z,19.70
2023-05-25T12:49:44.472Z,19.80
2023-05-25T12:52:32.630Z,19.80
2023-05-25T12:55:20.426Z,19.90
2023-05-25T12:57:52.349Z,19.90
2023-05-25T13:00:22.183Z,19.80
2023-05-25T13:02:50.626Z,19.80
2023-05-25T13:05:20.353Z,19.90
2023-05-25T13:07:48.633Z,20.10
2023-05-25T13:10:18.613Z,20.20
2023-05-25T13:15:25.250Z,20.20
2023-05-25T13:17:54.359Z,20.30
2023-05-25T13:20:23.788Z,20.30
2023-05-25T13:22:56.915Z,20.30
2023-05-25T13:25:28.526Z,20.30
2023-05-25T13:28:01.198Z,20.30
2023-05-25T13:30:29.186Z,20.20
2023-05-25T13:32:57.185Z,20.20
2023-05-25T13:35:41.082Z,20.30
2023-05-25T13:40:44.136Z,20.50
2023-05-25T13:43:14.560Z,20.40
2023-05-25T13:48:11.266Z,20.60
2023-05-25T13:50:39.237Z,20.60
2023-05-25T13:53:07.234Z,20.70
2023-05-25T13:58:08.341Z,20.70
2023-05-25T14:00:36.836Z,20.80
2023-05-25T14:03:04.975Z,20.90
2023-05-25T14:05:32.996Z,20.90
2023-05-25T14:08:04.639Z,20.90
2023-05-25T14:17:58.910Z,21.30
2023-05-25T14:20:27.272Z,21.40
2023-05-25T14:25:24.099Z,21.60
2023-05-25T14:27:51.954Z,21.60
2023-05-25T14:35:18.769Z,21.50
2023-05-25T14:37:46.730Z,21.50
2023-05-25T14:42:43.063Z,21.50
2023-05-25T14:50:13.005Z,21.80
2023-05-25T14:52:41.966Z,21.80
2023-05-25T14:55:10.557Z,21.80
2023-05-25T14:57:38.506Z,21.90
2023-05-25T15:00:07.644Z,21.90
2023-05-25T15:02:35.683Z,21.80
2023-05-25T15:05:03.737Z,21.80
2023-05-25T15:10:01.289Z,21.90
2023-05-25T15:12:29.304Z,22.00
2023-05-25T15:14:57.205Z,22.20
2023-05-25T15:17:25.193Z,22.30
2023-05-25T15:19:53.168Z,22.40
2023-05-25T15:22:21.473Z,22.40
2023-05-25T15:24:51.030Z,22.50
2023-05-25T15:27:18.941Z,22.50
2023-05-25T15:29:46.938Z,22.70
2023-05-25T15:32:17.752Z,22.70
2023-05-25T15:37:14.467Z,22.80
2023-05-25T15:42:24.937Z,22.80
2023-05-25T15:44:52.825Z,22.80
2023-05-25T15:52:17.602Z,22.70
2023-05-25T15:54:47.675Z,22.70
2023-05-25T15:57:19.124Z,22.90
2023-05-25T15:59:48.464Z,22.70
2023-05-25T16:02:20.038Z,22.70
2023-05-25T16:04:47.953Z,23.00
2023-05-25T16:07:15.841Z,23.10
2023-05-25T16:09:43.973Z,23.10
2023-05-25T16:12:11.812Z,23.20
2023-05-25T16:14:40.571Z,23.10
2023-05-25T16:17:09.726Z,22.80
2023-05-25T16:19:37.520Z,22.90
2023-05-25T16:22:05.743Z,23.10
2023-05-25T16:24:33.824Z,23.20
2023-05-25T16:27:02.538Z,23.20
2023-05-25T16:29:30.611Z,23.10
2023-05-25T16:34:28.316Z,23.10
2023-05-25T16:39:24.430Z,23.30
2023-05-25T16:41:52.293Z,23.50
2023-05-25T16:44:20.075Z,23.50
2023-05-25T16:46:47.976Z,23.60
2023-05-25T16:51:45.284Z,23.60
2023-05-25T16:54:15.199Z,23.70
2023-05-25T16:56:43.111Z,23.70
2023-05-25T17:09:05.748Z,24.00
2023-05-25T17:11:33.662Z,24.00
2023-05-25T17:26:24.611Z,24.40
2023-05-25T17:28:52.376Z,24.50
2023-05-25T17:38:44.721Z,24.60
2023-05-25T17:41:12.616Z,24.40
2023-05-25T17:43:41.843Z,24.40
2023-05-25T17:46:10.021Z,24.10
2023-05-25T17:53:34.487Z,24.20
2023-05-25T18:01:00.277Z,24.00
2023-05-25T18:05:56.635Z,23.80
2023-05-25T18:13:21.013Z,23.40
2023-05-25T18:18:20.771Z,23.10
2023-05-25T18:25:45.469Z,22.70
2023-05-25T18:28:14.908Z,22.70
2023-05-25T18:30:43.497Z,22.60
2023-05-25T18:33:11.559Z,22.30
2023-05-25T18:35:40.712Z,21.80
2023-05-25T18:38:08.470Z,21.40
2023-05-25T18:43:04.637Z,20.80
2023-05-25T18:45:32.430Z,20.50
2023-05-25T18:50:35.465Z,20.10
2023-05-25T18:53:07.628Z,20.00
2023-05-25T18:58:04.106Z,19.70
2023-05-25T19:00:32.009Z,19.60
2023-05-25T19:02:59.971Z,19.60
2023-05-25T19:07:59.528Z,19.40
2023-05-25T19:10:29.346Z,19.30
2023-05-25T19:12:57.204Z,19.20
2023-05-25T19:15:25.159Z,19.10
2023-05-25T19:17:53.109Z,19.00
2023-05-25T19:20:21.174Z,18.80
2023-05-25T19:22:49.100Z,18.80
2023-05-25T19:25:17.050Z,18.70
2023-05-25T19:27:46.169Z,18.60
2023-05-25T19:30:14.393Z,18.60
2023-05-25T19:32:42.516Z,18.50
2023-05-25T19:35:10.694Z,18.50
2023-05-25T19:37:40.669Z,18.40
2023-05-25T19:40:11.092Z,18.40
2023-05-25T19:42:39.013Z,18.30
2023-05-25T19:47:37.080Z,18.20
2023-05-25T19:50:05.457Z,18.00
2023-05-25T19:52:33.561Z,17.90
2023-05-25T19:55:01.413Z,17.90
2023-05-25T19:57:30.552Z,17.80
2023-05-25T20:00:02.897Z,17.70
2023-05-25T20:07:40.535Z,17.60
2023-05-25T20:10:15.147Z,17.70
2023-05-25T20:12:43.037Z,17.60
2023-05-25T20:15:11.264Z,17.60
2023-05-25T20:17:40.558Z,17.50
2023-05-25T20:25:14.171Z,17.20
2023-05-25T20:30:18.825Z,17.20
2023-05-25T20:32:49.389Z,17.10
2023-05-25T20:35:20.697Z,17.10
2023-05-25T20:37:48.475Z,17.00
2023-05-25T20:40:19.174Z,17.00
2023-05-25T20:42:46.958Z,16.90
2023-05-25T20:45:14.998Z,16.90
2023-05-25T20:47:53.848Z,16.80
2023-05-25T20:55:26.110Z,16.60
2023-05-25T20:57:53.923Z,16.60
2023-05-25T21:00:26.828Z,16.60
2023-05-25T21:08:06.116Z,16.40
2023-05-25T21:10:36.675Z,16.30
2023-05-25T21:13:04.576Z,16.30
2023-05-25T21:23:13.985Z,16.10
2023-05-25T21:25:41.788Z,16.00
2023-05-25T21:28:10.417Z,16.00
2023-05-25T21:30:38.212Z,15.90
2023-05-25T21:33:06.128Z,15.90
2023-05-25T21:35:34.125Z,15.90
2023-05-25T21:38:03.342Z,15.80
2023-05-25T21:40:31.114Z,15.70
2023-05-25T21:42:59.243Z,15.70
2023-05-25T21:45:27.078Z,15.70
2023-05-25T21:47:55.049Z,15.70
2023-05-25T21:50:22.826Z,15.60
2023-05-25T21:52:50.617Z,15.60
2023-05-25T21:55:19.753Z,15.50
2023-05-25T21:57:47.869Z,15.40
2023-05-25T22:00:17.119Z,15.40
2023-05-25T22:02:45.139Z,15.40
2023-05-25T22:05:13.271Z,15.40
2023-05-25T22:07:41.752Z,15.30
2023-05-25T22:10:11.079Z,15.30
2023-05-25T22:12:40.272Z,15.20
2023-05-25T22:15:09.259Z,15.20
2023-05-25T22:17:37.196Z,15.20
2023-05-25T22:20:07.824Z,15.10
2023-05-25T22:22:37.265Z,15.10
2023-05-25T22:25:06.032Z,15.10
2023-05-25T22:27:34.061Z,15.10
2023-05-25T22:30:03.320Z,15.10
2023-05-25T22:32:31.453Z,15.00
2023-05-25T22:34:59.390Z,15.00
2023-05-25T22:37:27.252Z,15.00
2023-05-25T22:39:55.144Z,15.00
2023-05-25T22:42:22.986Z,14.90
2023-05-25T22:44:51.207Z,14.90
2023-05-25T22:47:20.638Z,14.90
2023-05-25T22:49:48.587Z,14.90
2023-05-25T22:52:16.691Z,14.90
2023-05-25T22:54:44.745Z,14.90
2023-05-25T22:57:12.890Z,14.90
2023-05-25T22:59:40.792Z,14.80
2023-05-25T23:02:08.767Z,14.80
2023-05-25T23:04:38.119Z,14.70
2023-05-25T23:07:06.249Z,14.70
2023-05-25T23:09:34.105Z,14.70
2023-05-25T23:12:01.978Z,14.70
2023-05-25T23:14:30.571Z,14.50
2023-05-25T23:16:58.577Z,14.50
2023-05-25T23:19:26.521Z,14.50
2023-05-25T23:21:56.517Z,14.40
2023-05-25T23:24:24.691Z,14.40
2023-05-25T23:26:53.048Z,14.40
2023-05-25T23:29:21.041Z,14.30
2023-05-25T23:31:48.930Z,14.30
2023-05-25T23:34:16.881Z,14.30
2023-05-25T23:36:45.915Z,14.30
2023-05-25T23:39:15.226Z,14.30
2023-05-25T23:41:43.076Z,14.30
2023-05-25T23:44:10.950Z,14.30
2023-05-25T23:46:38.971Z,14.30
2023-05-25T23:51:35.046Z,14.30
2023-05-25T23:54:02.848Z,14.20
2023-05-25T23:56:32.552Z,14.00
2023-05-25T23:59:00.360Z,14.10
